createdAt,value
2019-04-01T00:00:44.176Z,26.33
2019-04-01T00:03:16.677Z,28.83
2019-04-01T00:05:49.186Z,23.80
2019-04-01T00:08:21.521Z,30.10
2019-04-01T00:10:54.199Z,27.80
2019-04-01T00:13:26.576Z,19.00
2019-04-01T00:15:58.831Z,25.83
2019-04-01T00:18:31.291Z,29.00
2019-04-01T00:21:03.662Z,27.97
2019-04-01T00:23:36.246Z,28.07
2019-04-01T00:26:08.617Z,24.37
2019-04-01T00:28:41.002Z,26.70
2019-04-01T00:31:13.465Z,33.97
2019-04-01T00:33:45.871Z,35.80
2019-04-01T00:36:18.173Z,27.10
2019-04-01T00:38:50.596Z,25.67
2019-04-01T00:41:49.476Z,33.80
2019-04-01T00:44:21.942Z,37.83
2019-04-01T00:46:54.366Z,62.33
2019-04-01T00:49:26.966Z,49.27
2019-04-01T00:51:59.526Z,56.60
2019-04-01T00:54:31.813Z,49.93
2019-04-01T00:57:04.116Z,41.10
2019-04-01T00:59:36.312Z,34.00
2019-04-01T01:02:08.751Z,39.27
2019-04-01T01:04:42.237Z,25.47
2019-04-01T01:07:14.581Z,27.70
2019-04-01T01:09:48.001Z,26.87
2019-04-01T01:12:20.807Z,34.97
2019-04-01T01:14:54.491Z,44.03
2019-04-01T01:17:27.844Z,31.27
2019-04-01T01:20:00.517Z,28.07
2019-04-01T01:22:33.046Z,34.50
2019-04-01T01:25:05.608Z,25.10
2019-04-01T01:27:39.146Z,31.17
2019-04-01T01:30:12.386Z,26.03
2019-04-01T01:32:44.751Z,33.07
2019-04-01T01:35:17.199Z,27.67
2019-04-01T01:37:49.536Z,31.33
2019-04-01T01:40:21.921Z,30.20
2019-04-01T01:42:54.221Z,37.27
2019-04-01T01:45:26.711Z,32.90
2019-04-01T01:47:59.247Z,30.10
2019-04-01T01:50:31.983Z,24.50
2019-04-01T01:53:04.561Z,26.17
2019-04-01T01:55:36.656Z,20.47
2019-04-01T01:58:09.131Z,20.70
2019-04-01T02:00:42.112Z,22.30
2019-04-01T02:03:16.034Z,16.50
2019-04-01T02:05:48.301Z,23.33
2019-04-01T02:08:21.057Z,21.43
2019-04-01T02:10:53.406Z,18.70
2019-04-01T02:13:26.418Z,19.13
2019-04-01T02:15:58.736Z,23.67
2019-04-01T02:18:31.181Z,15.83
2019-04-01T02:21:03.582Z,19.50
2019-04-01T02:23:35.892Z,19.60
2019-04-01T02:26:08.276Z,17.53
2019-04-01T02:28:40.766Z,15.87
2019-04-01T02:31:13.322Z,15.57
2019-04-01T02:33:45.883Z,20.60
2019-04-01T02:36:18.278Z,15.80
2019-04-01T02:38:50.947Z,19.70
2019-04-01T02:41:23.732Z,22.97
2019-04-01T02:43:56.103Z,22.87
2019-04-01T02:46:28.583Z,14.00
2019-04-01T02:49:01.166Z,17.80
2019-04-01T02:51:33.948Z,15.43
2019-04-01T02:54:06.207Z,21.97
2019-04-01T02:56:38.543Z,19.73
2019-04-01T02:59:10.779Z,24.00
2019-04-01T03:01:43.338Z,18.43
2019-04-01T03:04:15.893Z,16.90
2019-04-01T03:06:48.298Z,56.03
2019-04-01T03:09:21.022Z,110.77
2019-04-01T03:11:53.282Z,90.17
2019-04-01T03:14:25.780Z,58.50
2019-04-01T03:16:58.272Z,58.90
2019-04-01T03:19:30.851Z,51.97
2019-04-01T03:22:03.191Z,42.20
2019-04-01T03:24:35.593Z,43.17
2019-04-01T03:27:09.151Z,44.47
2019-04-01T03:29:41.509Z,46.60
2019-04-01T03:32:14.157Z,42.30
2019-04-01T03:34:46.613Z,46.93
2019-04-01T03:37:19.247Z,78.73
2019-04-01T03:39:51.651Z,58.37
2019-04-01T03:42:24.357Z,54.33
2019-04-01T03:44:57.069Z,56.07
2019-04-01T03:47:29.711Z,48.77
2019-04-01T03:50:02.076Z,47.33
2019-04-01T03:52:34.477Z,39.67
2019-04-01T03:55:07.426Z,49.97
2019-04-01T03:57:39.596Z,47.43
2019-04-01T04:00:13.157Z,56.50
2019-04-01T04:02:45.648Z,45.60
2019-04-01T04:05:18.039Z,38.10
2019-04-01T04:07:50.887Z,34.70
2019-04-01T04:10:23.541Z,48.80
2019-04-01T04:12:55.982Z,26.80
2019-04-01T04:15:28.242Z,37.60
2019-04-01T04:18:00.773Z,49.43
2019-04-01T04:20:33.092Z,36.47
2019-04-01T04:23:06.559Z,31.37
2019-04-01T04:25:38.932Z,27.77
2019-04-01T04:28:11.475Z,25.70
2019-04-01T04:30:44.186Z,28.73
2019-04-01T04:33:17.730Z,36.63
2019-04-01T04:35:50.377Z,38.97
2019-04-01T04:38:22.903Z,44.43
2019-04-01T04:40:55.461Z,37.00
2019-04-01T04:43:27.906Z,52.73
2019-04-01T04:46:00.327Z,50.60
2019-04-01T04:48:34.087Z,57.07
2019-04-01T04:51:06.481Z,65.73
2019-04-01T04:53:38.674Z,71.97
2019-04-01T04:56:11.006Z,77.33
2019-04-01T04:58:43.368Z,82.00
2019-04-01T05:01:15.956Z,87.53
2019-04-01T05:03:48.537Z,91.37
2019-04-01T05:06:21.216Z,95.93
2019-04-01T05:08:53.466Z,82.77
2019-04-01T05:11:25.818Z,85.00
2019-04-01T05:13:58.986Z,56.47
2019-04-01T05:16:31.728Z,65.07
2019-04-01T05:19:04.461Z,74.63
2019-04-01T05:21:36.767Z,80.03
2019-04-01T05:24:09.717Z,78.43
2019-04-01T05:26:42.284Z,61.90
2019-04-01T05:29:15.572Z,46.10
2019-04-01T05:31:48.416Z,59.63
2019-04-01T05:34:21.451Z,86.40
2019-04-01T05:36:53.871Z,94.57
2019-04-01T05:39:26.686Z,53.90
2019-04-01T05:41:59.271Z,52.33
2019-04-01T05:44:31.708Z,54.80
2019-04-01T05:47:04.141Z,41.73
2019-04-01T05:49:36.381Z,52.57
2019-04-01T05:52:08.762Z,55.67
2019-04-01T05:54:41.171Z,48.57
2019-04-01T05:57:14.211Z,42.40
2019-04-01T05:59:46.651Z,47.70
2019-04-01T06:02:19.167Z,33.27
2019-04-01T06:04:51.596Z,40.20
2019-04-01T06:07:24.001Z,38.33
2019-04-01T06:09:56.617Z,41.67
2019-04-01T06:12:28.991Z,39.43
2019-04-01T06:15:01.472Z,40.00
2019-04-01T06:17:34.181Z,30.27
2019-04-01T06:20:07.610Z,32.60
2019-04-01T06:22:39.776Z,31.63
2019-04-01T06:25:12.297Z,30.20
2019-04-01T06:27:44.926Z,28.83
2019-04-01T06:30:17.446Z,29.17
2019-04-01T06:32:49.786Z,30.50
2019-04-01T06:35:22.355Z,23.03
2019-04-01T06:37:54.893Z,26.93
2019-04-01T06:40:27.210Z,28.40
2019-04-01T06:42:59.867Z,26.83
2019-04-01T06:45:33.818Z,21.13
2019-04-01T06:48:06.541Z,25.97
2019-04-01T06:50:38.901Z,31.60
2019-04-01T06:53:11.397Z,30.67
2019-04-01T06:55:43.713Z,27.87
2019-04-01T06:58:16.153Z,33.60
2019-04-01T07:00:48.540Z,34.47
2019-04-01T07:03:21.163Z,36.80
2019-04-01T07:05:54.469Z,35.63
2019-04-01T07:08:27.126Z,36.67
2019-04-01T07:10:59.286Z,29.03
2019-04-01T07:13:39.964Z,25.17
2019-04-01T07:16:15.865Z,23.13
2019-04-01T07:18:45.531Z,20.80
2019-04-01T07:21:17.608Z,25.73
2019-04-01T07:23:49.766Z,17.97
2019-04-01T07:26:21.872Z,19.77
2019-04-01T07:28:54.027Z,19.87
2019-04-01T07:31:26.468Z,16.43
2019-04-01T07:33:59.966Z,18.93
2019-04-01T07:36:32.246Z,14.80
2019-04-01T07:39:05.786Z,13.40
2019-04-01T07:41:38.006Z,16.67
2019-04-01T07:44:10.796Z,12.97
2019-04-01T07:46:42.976Z,16.03
2019-04-01T07:49:15.336Z,9.73
2019-04-01T07:51:47.697Z,13.33
2019-04-01T07:54:20.097Z,12.93
2019-04-01T07:56:52.267Z,14.57
2019-04-01T07:59:24.458Z,18.57
2019-04-01T08:01:56.617Z,11.37
2019-04-01T08:04:28.816Z,14.13
2019-04-01T08:07:01.131Z,14.30
2019-04-01T08:09:33.596Z,13.20
2019-04-01T08:12:06.577Z,11.93
2019-04-01T08:14:38.677Z,14.83
2019-04-01T08:17:10.816Z,11.37
2019-04-01T08:19:42.916Z,24.27
2019-04-01T08:22:15.139Z,18.50
2019-04-01T08:24:47.312Z,13.07
2019-04-01T08:27:19.883Z,14.83
2019-04-01T08:29:51.857Z,17.43
2019-04-01T08:32:23.901Z,13.20
2019-04-01T08:34:56.956Z,15.40
2019-04-01T08:37:29.286Z,8.97
2019-04-01T08:40:01.555Z,5.23
2019-04-01T08:42:34.696Z,7.50
2019-04-01T08:45:09.166Z,11.53
2019-04-01T08:47:41.315Z,5.10
2019-04-01T08:50:13.398Z,6.50
2019-04-01T08:52:45.516Z,13.37
2019-04-01T08:55:17.816Z,4.67
2019-04-01T08:57:50.186Z,4.73
2019-04-01T09:00:22.456Z,12.77
2019-04-01T09:02:54.536Z,6.43
2019-04-01T09:05:26.537Z,4.47
2019-04-01T09:07:58.956Z,5.90
2019-04-01T09:10:31.056Z,13.93
2019-04-01T09:13:03.356Z,1.63
2019-04-01T09:15:35.416Z,4.53
2019-04-01T09:18:07.556Z,3.63
2019-04-01T09:20:39.695Z,3.30
2019-04-01T09:23:11.936Z,3.23
2019-04-01T09:25:43.936Z,5.27
2019-04-01T09:28:16.202Z,5.67
2019-04-01T09:30:48.616Z,3.07
2019-04-01T09:33:21.039Z,4.03
2019-04-01T09:35:53.516Z,4.67
2019-04-01T09:38:25.575Z,1.27
2019-04-01T09:40:57.616Z,2.03
2019-04-01T09:43:30.127Z,4.80
2019-04-01T09:46:02.342Z,3.90
2019-04-01T09:48:34.492Z,7.93
2019-04-01T09:51:06.936Z,2.60
2019-04-01T09:53:39.176Z,2.13
2019-04-01T09:56:11.241Z,5.57
2019-04-01T09:58:43.356Z,2.40
2019-04-01T10:01:15.836Z,3.43
2019-04-01T10:03:47.976Z,5.60
2019-04-01T10:06:20.177Z,5.17
2019-04-01T10:08:52.741Z,3.30
2019-04-01T10:11:24.956Z,5.53
2019-04-01T10:13:57.176Z,4.70
2019-04-01T10:16:29.376Z,4.40
2019-04-01T10:19:01.897Z,5.00
2019-04-01T10:21:34.096Z,8.63
2019-04-01T10:24:06.376Z,3.23
2019-04-01T10:26:38.536Z,2.83
2019-04-01T10:29:11.036Z,9.97
2019-04-01T10:31:43.479Z,25.73
2019-04-01T10:34:15.756Z,2.87
2019-04-01T10:36:48.117Z,5.50
2019-04-01T10:39:20.255Z,7.03
2019-04-01T10:41:52.337Z,2.43
2019-04-01T10:44:24.796Z,5.63
2019-04-01T10:46:57.000Z,6.83
2019-04-01T10:49:32.023Z,3.13
2019-04-01T10:52:02.929Z,5.37
2019-04-01T10:54:35.232Z,4.93
2019-04-01T10:57:07.466Z,3.63
2019-04-01T10:59:39.940Z,2.83
2019-04-01T11:02:12.009Z,3.13
2019-04-01T11:04:44.335Z,3.23
2019-04-01T11:07:16.688Z,2.97
2019-04-01T11:09:48.836Z,3.23
2019-04-01T11:12:21.236Z,3.80
2019-04-01T11:14:53.399Z,2.67
2019-04-01T11:17:25.756Z,9.73
2019-04-01T11:19:57.977Z,5.73
2019-04-01T11:22:29.936Z,3.07
2019-04-01T11:25:02.141Z,4.13
2019-04-01T11:27:34.336Z,6.17
2019-04-01T11:30:08.516Z,3.40
2019-04-01T11:32:41.519Z,3.27
2019-04-01T11:35:13.648Z,3.47
2019-04-01T11:37:45.628Z,9.33
2019-04-01T11:40:17.726Z,3.17
2019-04-01T11:42:49.958Z,3.93
2019-04-01T11:45:22.668Z,3.33
2019-04-01T11:47:55.054Z,7.63
2019-04-01T11:50:27.367Z,3.13
2019-04-01T11:52:59.577Z,2.77
2019-04-01T11:55:32.190Z,8.33
2019-04-01T11:58:04.477Z,2.50
2019-04-01T12:00:36.776Z,2.60
2019-04-01T12:03:08.855Z,3.13
2019-04-01T12:05:41.156Z,5.60
2019-04-01T12:08:13.426Z,9.20
2019-04-01T12:10:45.776Z,4.40
2019-04-01T12:13:18.075Z,3.03
2019-04-01T12:15:50.315Z,9.97
2019-04-01T12:18:22.435Z,5.17
2019-04-01T12:20:54.435Z,3.90
2019-04-01T12:23:26.858Z,6.30
2019-04-01T12:26:13.890Z,3.13
2019-04-01T12:28:36.338Z,11.80
2019-04-01T12:31:06.898Z,6.50
2019-04-01T12:33:39.791Z,4.30
2019-04-01T12:36:12.136Z,5.97
2019-04-01T12:38:44.357Z,5.93
2019-04-01T12:41:17.026Z,4.03
2019-04-01T12:43:49.346Z,6.80
2019-04-01T12:46:21.695Z,3.90
2019-04-01T12:48:54.001Z,6.90
2019-04-01T12:51:26.195Z,7.13
2019-04-01T12:53:58.520Z,5.60
2019-04-01T12:56:30.636Z,2.97
2019-04-01T12:59:02.991Z,7.93
2019-04-01T13:01:35.495Z,3.27
2019-04-01T13:04:08.046Z,3.23
2019-04-01T13:06:40.555Z,14.67
2019-04-01T13:09:12.926Z,12.27
2019-04-01T13:11:45.621Z,4.83
2019-04-01T13:14:18.556Z,4.03
2019-04-01T13:16:50.776Z,12.57
2019-04-01T13:19:23.381Z,20.87
2019-04-01T13:21:55.773Z,6.27
2019-04-01T13:24:28.906Z,5.70
2019-04-01T13:27:01.051Z,6.87
2019-04-01T13:29:33.671Z,7.20
2019-04-01T13:32:06.910Z,10.07
2019-04-01T13:34:39.231Z,2.40
2019-04-01T13:37:12.473Z,3.43
2019-04-01T13:39:46.287Z,8.80
2019-04-01T13:42:18.633Z,8.67
2019-04-01T13:44:51.531Z,6.70
2019-04-01T13:47:24.111Z,5.00
2019-04-01T13:49:56.494Z,3.17
2019-04-01T13:52:28.650Z,3.47
2019-04-01T13:55:00.830Z,2.57
2019-04-01T13:57:33.090Z,13.33
2019-04-01T14:00:06.791Z,14.87
2019-04-01T14:02:39.091Z,11.67
2019-04-01T14:05:11.431Z,4.67
2019-04-01T14:07:43.771Z,49.83
2019-04-01T14:10:15.919Z,16.67
2019-04-01T14:12:49.350Z,5.50
2019-04-01T14:15:21.706Z,5.40
2019-04-01T14:17:54.099Z,10.60
2019-04-01T14:20:26.190Z,16.47
2019-04-01T14:22:58.611Z,4.93
2019-04-01T14:25:30.830Z,10.60
2019-04-01T14:28:03.190Z,5.07
2019-04-01T14:30:36.157Z,6.43
2019-04-01T14:33:08.770Z,15.67
2019-04-01T14:35:40.731Z,7.80
2019-04-01T14:38:13.031Z,20.77
2019-04-01T14:40:45.231Z,8.30
2019-04-01T14:43:17.630Z,15.63
2019-04-01T14:45:49.891Z,9.60
2019-04-01T14:48:22.344Z,5.83
2019-04-01T14:50:54.901Z,12.80
2019-04-01T14:53:27.305Z,64.13
2019-04-01T14:55:59.881Z,23.77
2019-04-01T14:58:32.450Z,10.07
2019-04-01T15:01:04.983Z,15.83
2019-04-01T15:03:38.526Z,8.30
2019-04-01T15:06:11.721Z,10.73
2019-04-01T15:08:44.103Z,12.70
2019-04-01T15:11:16.730Z,10.20
2019-04-01T15:13:49.451Z,21.17
2019-04-01T15:16:21.856Z,11.83
2019-04-01T15:18:54.106Z,10.40
2019-04-01T15:21:26.466Z,23.63
2019-04-01T15:23:58.876Z,15.00
2019-04-01T15:26:31.348Z,16.87
2019-04-01T15:29:03.717Z,6.07
2019-04-01T15:31:36.321Z,13.43
2019-04-01T15:34:09.459Z,9.30
2019-04-01T15:36:42.169Z,21.13
2019-04-01T15:39:15.471Z,11.70
2019-04-01T15:41:47.788Z,12.43
2019-04-01T15:44:20.459Z,190.80
2019-04-01T15:46:52.735Z,61.37
2019-04-01T15:49:24.980Z,32.50
2019-04-01T15:51:57.330Z,20.13
2019-04-01T15:54:29.736Z,18.37
2019-04-01T15:57:02.286Z,29.07
2019-04-01T15:59:34.820Z,40.80
2019-04-01T16:02:07.406Z,15.10
2019-04-01T16:04:40.166Z,9.67
2019-04-01T16:07:12.685Z,15.57
2019-04-01T16:09:45.170Z,22.50
2019-04-01T16:12:17.485Z,35.13
2019-04-01T16:14:50.316Z,46.60
2019-04-01T16:17:22.931Z,24.30
2019-04-01T16:19:55.651Z,33.97
2019-04-01T16:22:27.946Z,19.30
2019-04-01T16:25:00.766Z,12.37
2019-04-01T16:27:33.290Z,19.53
2019-04-01T16:30:07.850Z,17.83
2019-04-01T16:32:40.358Z,22.50
2019-04-01T16:35:12.861Z,19.03
2019-04-01T16:37:45.651Z,19.27
2019-04-01T16:40:18.408Z,22.53
2019-04-01T16:42:51.372Z,23.50
2019-04-01T16:45:23.893Z,34.47
2019-04-01T16:47:56.286Z,23.30
2019-04-01T16:50:28.782Z,19.97
2019-04-01T16:53:01.356Z,29.27
2019-04-01T16:55:33.790Z,31.27
2019-04-01T16:58:06.701Z,86.73
2019-04-01T17:00:39.776Z,77.67
2019-04-01T17:03:13.722Z,84.97
2019-04-01T17:05:47.950Z,75.73
2019-04-01T17:08:20.666Z,159.77
2019-04-01T17:10:53.250Z,143.60
2019-04-01T17:13:27.150Z,51.93
2019-04-01T17:16:01.693Z,75.10
2019-04-01T17:18:35.540Z,54.93
2019-04-01T17:21:08.122Z,59.27
2019-04-01T17:23:41.997Z,49.57
2019-04-01T17:26:15.071Z,55.93
2019-04-01T17:28:47.696Z,67.87
2019-04-01T17:31:20.205Z,65.27
2019-04-01T17:33:53.170Z,69.73
2019-04-01T17:36:26.002Z,47.73
2019-04-01T17:38:58.762Z,55.70
2019-04-01T17:41:31.381Z,113.73
2019-04-01T17:44:03.886Z,125.33
2019-04-01T17:46:37.364Z,151.40
2019-04-01T17:49:10.312Z,160.60
2019-04-01T17:51:44.180Z,96.97
2019-04-01T17:54:17.184Z,175.23
2019-04-01T17:56:51.242Z,291.57
2019-04-01T17:59:23.836Z,352.60
2019-04-01T18:01:57.195Z,500.27
2019-04-01T18:04:30.962Z,336.43
2019-04-01T18:07:03.806Z,293.73
2019-04-01T18:09:36.314Z,161.37
2019-04-01T18:12:08.839Z,118.93
2019-04-01T18:14:41.206Z,217.80
2019-04-01T18:17:13.806Z,194.07
2019-04-01T18:19:47.267Z,183.90
2019-04-01T18:22:19.922Z,186.67
2019-04-01T18:24:52.348Z,200.97
2019-04-01T18:27:25.068Z,104.27
2019-04-01T18:29:57.506Z,160.00
2019-04-01T18:32:31.131Z,91.60
2019-04-01T18:35:04.369Z,72.37
2019-04-01T18:37:37.048Z,83.80
2019-04-01T18:40:09.648Z,68.87
2019-04-01T18:42:42.266Z,76.57
2019-04-01T18:45:14.681Z,71.97
2019-04-01T18:47:47.451Z,84.33
2019-04-01T18:50:20.006Z,72.37
2019-04-01T18:52:52.777Z,67.03
2019-04-01T18:55:26.331Z,63.30
2019-04-01T18:57:59.206Z,69.80
2019-04-01T19:00:31.656Z,63.10
2019-04-01T19:03:04.260Z,111.43
2019-04-01T19:05:36.611Z,87.63
2019-04-01T19:08:09.222Z,109.90
2019-04-01T19:10:42.037Z,53.07
2019-04-01T19:13:14.911Z,43.27
2019-04-01T19:15:48.160Z,76.57
2019-04-01T19:18:21.435Z,50.93
2019-04-01T19:20:56.849Z,87.27
2019-04-01T19:23:28.090Z,122.03
2019-04-01T19:26:00.492Z,100.33
2019-04-01T19:28:33.103Z,101.00
2019-04-01T19:31:05.536Z,61.00
2019-04-01T19:33:38.317Z,78.70
2019-04-01T19:36:11.246Z,62.73
2019-04-01T19:38:43.921Z,94.33
2019-04-01T19:41:16.566Z,140.53
2019-04-01T19:43:51.164Z,92.50
2019-04-01T19:46:23.861Z,73.63
2019-04-01T19:48:56.352Z,54.23
2019-04-01T19:51:29.011Z,49.87
2019-04-01T19:54:01.421Z,50.00
2019-04-01T19:56:34.305Z,72.87
2019-04-01T19:59:06.892Z,77.97
2019-04-01T20:01:39.753Z,66.30
2019-04-01T20:04:12.256Z,70.57
2019-04-01T20:06:44.821Z,86.33
2019-04-01T20:09:18.122Z,73.80
2019-04-01T20:11:50.964Z,101.97
2019-04-01T20:14:23.491Z,81.60
2019-04-01T20:16:55.940Z,62.50
2019-04-01T20:19:29.781Z,127.20
2019-04-01T20:22:02.181Z,114.83
2019-04-01T20:24:34.861Z,124.10
2019-04-01T20:27:07.186Z,105.17
2019-04-01T20:29:40.815Z,73.47
2019-04-01T20:32:17.649Z,81.07
2019-04-01T20:34:56.757Z,94.37
2019-04-01T20:37:21.708Z,88.37
2019-04-01T20:39:55.258Z,62.17
2019-04-01T20:42:28.396Z,67.27
2019-04-01T20:45:01.176Z,84.90
2019-04-01T20:47:33.500Z,84.53
2019-04-01T20:50:11.186Z,82.07
2019-04-01T20:52:43.823Z,90.93
2019-04-01T20:55:16.586Z,118.77
2019-04-01T20:57:49.133Z,94.00
2019-04-01T21:00:21.843Z,81.37
2019-04-01T21:02:54.481Z,61.93
2019-04-01T21:05:27.117Z,88.37
2019-04-01T21:07:59.510Z,49.63
2019-04-01T21:10:31.996Z,56.10
2019-04-01T21:13:06.036Z,80.57
2019-04-01T21:15:38.354Z,67.40
2019-04-01T21:18:10.910Z,74.13
2019-04-01T21:20:43.545Z,57.07
2019-04-01T21:23:16.101Z,42.13
2019-04-01T21:25:48.831Z,90.27
2019-04-01T21:28:22.925Z,76.30
2019-04-01T21:30:55.786Z,103.93
2019-04-01T21:33:28.341Z,148.17
2019-04-01T21:36:01.016Z,99.67
2019-04-01T21:38:33.509Z,73.43
2019-04-01T21:41:05.925Z,72.33
2019-04-01T21:43:38.561Z,100.83
2019-04-01T21:46:10.986Z,83.90
2019-04-01T21:48:43.701Z,67.50
2019-04-01T21:51:16.632Z,55.63
2019-04-01T21:53:49.090Z,50.50
2019-04-01T21:56:22.189Z,72.33
2019-04-01T21:58:55.681Z,44.13
2019-04-01T22:01:28.282Z,44.40
2019-04-01T22:04:00.845Z,44.77
2019-04-01T22:06:33.327Z,48.20
2019-04-01T22:09:08.836Z,49.57
2019-04-01T22:11:41.271Z,63.03
2019-04-01T22:14:13.496Z,55.60
2019-04-01T22:16:48.018Z,124.13
2019-04-01T22:19:20.656Z,154.13
2019-04-01T22:21:53.380Z,123.67
2019-04-01T22:24:25.855Z,116.17
2019-04-01T22:26:58.415Z,70.93
2019-04-01T22:29:30.858Z,35.93
2019-04-01T22:32:03.355Z,43.40
2019-04-01T22:34:38.068Z,78.37
2019-04-01T22:37:10.866Z,47.43
2019-04-01T22:39:45.443Z,47.23
2019-04-01T22:42:17.626Z,41.00
2019-04-01T22:44:50.132Z,41.30
2019-04-01T22:47:24.347Z,42.43
2019-04-01T22:49:58.196Z,36.10
2019-04-01T22:52:30.552Z,42.47
2019-04-01T22:55:03.127Z,47.57
2019-04-01T22:57:35.716Z,37.10
2019-04-01T23:00:08.095Z,31.80
2019-04-01T23:02:42.382Z,34.83
2019-04-01T23:05:15.401Z,28.97
2019-04-01T23:07:47.756Z,29.93
2019-04-01T23:10:20.390Z,27.60
2019-04-01T23:12:52.589Z,23.10
2019-04-01T23:15:25.242Z,30.80
2019-04-01T23:17:57.616Z,25.33
2019-04-01T23:20:29.871Z,23.63
2019-04-01T23:23:01.971Z,26.07
2019-04-01T23:25:34.511Z,26.93
2019-04-01T23:28:06.731Z,26.80
2019-04-01T23:30:39.286Z,25.07
2019-04-01T23:33:11.513Z,26.20
2019-04-01T23:35:43.996Z,26.47
2019-04-01T23:38:17.481Z,29.63
2019-04-01T23:40:49.846Z,22.97
2019-04-01T23:43:22.465Z,20.83
2019-04-01T23:45:55.152Z,26.97
2019-04-01T23:48:27.341Z,27.00
2019-04-01T23:50:59.805Z,23.47
2019-04-01T23:53:32.560Z,22.80
2019-04-01T23:56:05.072Z,18.23
2019-04-01T23:58:37.446Z,19.53
